^^
Daily Summary for August 29, 2021 Units:  Both    English   Metric
Daily Weekly Monthly Yearly Custom
  High: Low: Average:
Temperature: 103.0 °F /  39.4 °C 68.0 °F /  20 °C 83 °F /  28.3 °C
Dew Point: 46.0 °F /  7.8 °C 30.0 °F /  -1.1 °C 40.2 °F /  4.6 °C
Humidity: 42% 8% 26%
Wind Speed: 18mph /  29km/h - 3.6mph /  5.8km/h
Wind Gust: 17mph /  27.4km/h - -
Wind- - SSW
Pressure: 29.9 in /  1012.4 hPa 29.8 in /  1009 hPa -
Precipitation: 0.000 in /  0 mm    
Historical Graphs
 
 
Tabular Data for August 29, 2021
Time Temperature Dew Point Pressure Wind Wind Speed Wind Gust Humidity Rainfall Rate (Hourly) solar
00:04 73.0 °F /  22.8 °C 41.0 °F /  5 °C 29.8in /  1009hPa Calm     31% 0.000in /  0mm 0.00 W/m2
00:09 73.0 °F /  22.8 °C 40.0 °F /  4.4 °C 29.8in /  1009hPa Calm     31% 0.000in /  0mm 0.00 W/m2
00:14 73.0 °F /  22.8 °C 41.0 °F /  5 °C 29.8in /  1009hPa Calm     32% 0.000in /  0mm 0.00 W/m2
00:19 73.0 °F /  22.8 °C 41.0 °F /  5 °C 29.8in /  1009hPa Calm     32% 0.000in /  0mm 0.00 W/m2
00:24 72.0 °F /  22.2 °C 41.0 °F /  5 °C 29.8in /  1009hPa Calm     32% 0.000in /  0mm 0.00 W/m2
00:29 72.0 °F /  22.2 °C 42.0 °F /  5.6 °C 29.8in /  1009hPa Calm     33% 0.000in /  0mm 0.00 W/m2
00:34 72.0 °F /  22.2 °C 41.0 °F /  5 °C 29.8in /  1009hPa Calm     32% 0.000in /  0mm 0.00 W/m2
00:39 72.0 °F /  22.2 °C 41.0 °F /  5 °C 29.8in /  1009hPa Calm     32% 0.000in /  0mm 0.00 W/m2
00:44 72.0 °F /  22.2 °C 40.0 °F /  4.4 °C 29.8in /  1009hPa Calm     32% 0.000in /  0mm 0.00 W/m2
00:49 72.0 °F /  22.2 °C 40.0 °F /  4.4 °C 29.8in /  1009hPa Calm     32% 0.000in /  0mm 0.00 W/m2
00:54 72.0 °F /  22.2 °C 41.0 °F /  5 °C 29.8in /  1009hPa Calm     33% 0.000in /  0mm 0.00 W/m2
00:59 71.0 °F /  21.7 °C 42.0 °F /  5.6 °C 29.8in /  1009hPa Calm     34% 0.000in /  0mm 0.00 W/m2
01:04 71.0 °F /  21.7 °C 41.0 °F /  5 °C 29.8in /  1009hPa Calm     34% 0.000in /  0mm 0.00 W/m2
01:09 71.0 °F /  21.7 °C 43.0 °F /  6.1 °C 29.8in /  1009hPa Calm     37% 0.000in /  0mm 0.00 W/m2
01:14 71.0 °F /  21.7 °C 43.0 °F /  6.1 °C 29.8in /  1009hPa Calm     36% 0.000in /  0mm 0.00 W/m2
01:19 71.0 °F /  21.7 °C 45.0 °F /  7.2 °C 29.8in /  1009hPa Calm     39% 0.000in /  0mm 0.00 W/m2
01:24 71.0 °F /  21.7 °C 43.0 °F /  6.1 °C 29.8in /  1009hPa Calm     37% 0.000in /  0mm 0.00 W/m2
01:29 71.0 °F /  21.7 °C 44.0 °F /  6.7 °C 29.8in /  1009hPa Calm     38% 0.000in /  0mm 0.00 W/m2
01:34 70.0 °F /  21.1 °C 44.0 °F /  6.7 °C 29.8in /  1009hPa Calm     38% 0.000in /  0mm 0.00 W/m2
01:39 70.0 °F /  21.1 °C 42.0 °F /  5.6 °C 29.8in /  1009hPa Calm     36% 0.000in /  0mm 0.00 W/m2
01:44 70.0 °F /  21.1 °C 42.0 °F /  5.6 °C 29.8in /  1009hPa East 2mph /  3.2km/h   36% 0.000in /  0mm 0.00 W/m2
01:49 70.0 °F /  21.1 °C 43.0 °F /  6.1 °C 29.8in /  1009hPa Calm   2mph /  3.2km/h 37% 0.000in /  0mm 0.00 W/m2
01:54 70.0 °F /  21.1 °C 42.0 °F /  5.6 °C 29.8in /  1009hPa Calm     36% 0.000in /  0mm 0.00 W/m2
01:59 70.0 °F /  21.1 °C 42.0 °F /  5.6 °C 29.8in /  1009hPa East 2mph /  3.2km/h 1mph /  1.6km/h 37% 0.000in /  0mm 0.00 W/m2
02:04 70.0 °F /  21.1 °C 42.0 °F /  5.6 °C 29.8in /  1009hPa Calm   2mph /  3.2km/h 37% 0.000in /  0mm 0.00 W/m2
02:09 70.0 °F /  21.1 °C 42.0 °F /  5.6 °C 29.8in /  1009hPa Calm     37% 0.000in /  0mm 0.00 W/m2
02:14 70.0 °F /  21.1 °C 43.0 °F /  6.1 °C 29.8in /  1009hPa ENE 4mph /  6.4km/h 1mph /  1.6km/h 37% 0.000in /  0mm 0.00 W/m2
02:19 70.0 °F /  21.1 °C 43.0 °F /  6.1 °C 29.8in /  1009hPa Calm   3mph /  4.8km/h 37% 0.000in /  0mm 0.00 W/m2
02:24 70.0 °F /  21.1 °C 43.0 °F /  6.1 °C 29.8in /  1009hPa Calm     37% 0.000in /  0mm 0.00 W/m2
02:29 70.0 °F /  21.1 °C 43.0 °F /  6.1 °C 29.8in /  1009hPa ENE 2mph /  3.2km/h   37% 0.000in /  0mm 0.00 W/m2
02:34 70.0 °F /  21.1 °C 43.0 °F /  6.1 °C 29.8in /  1009hPa Calm   2mph /  3.2km/h 37% 0.000in /  0mm 0.00 W/m2
02:39 70.0 °F /  21.1 °C 42.0 °F /  5.6 °C 29.8in /  1009hPa ENE 4mph /  6.4km/h 1mph /  1.6km/h 36% 0.000in /  0mm 0.00 W/m2
02:44 70.0 °F /  21.1 °C 42.0 °F /  5.6 °C 29.8in /  1009hPa ENE 4mph /  6.4km/h 3mph /  4.8km/h 37% 0.000in /  0mm 0.00 W/m2
02:49 70.0 °F /  21.1 °C 42.0 °F /  5.6 °C 29.8in /  1009hPa Calm   2mph /  3.2km/h 37% 0.000in /  0mm 0.00 W/m2
02:53 70.0 °F /  21.1 °C 42.0 °F /  5.6 °C 29.8in /  1009hPa Calm     37% 0.000in /  0mm 0.00 W/m2
02:59 70.0 °F /  21.1 °C 42.0 °F /  5.6 °C 29.8in /  1009hPa Calm     37% 0.000in /  0mm 0.00 W/m2
03:04 70.0 °F /  21.1 °C 42.0 °F /  5.6 °C 29.8in /  1009hPa Calm     37% 0.000in /  0mm 0.00 W/m2
03:09 70.0 °F /  21.1 °C 42.0 °F /  5.6 °C 29.8in /  1009hPa Calm     37% 0.000in /  0mm 0.00 W/m2
03:14 70.0 °F /  21.1 °C 42.0 °F /  5.6 °C 29.8in /  1009hPa Calm     37% 0.000in /  0mm 0.00 W/m2
03:19 70.0 °F /  21.1 °C 42.0 °F /  5.6 °C 29.8in /  1009hPa Calm     37% 0.000in /  0mm 0.00 W/m2
03:24 70.0 °F /  21.1 °C 43.0 °F /  6.1 °C 29.8in /  1009hPa Calm     38% 0.000in /  0mm 0.00 W/m2
03:29 70.0 °F /  21.1 °C 43.0 °F /  6.1 °C 29.8in /  1009hPa Calm     38% 0.000in /  0mm 0.00 W/m2
03:34 70.0 °F /  21.1 °C 42.0 °F /  5.6 °C 29.8in /  1009hPa Calm     37% 0.000in /  0mm 0.00 W/m2
03:39 70.0 °F /  21.1 °C 42.0 °F /  5.6 °C 29.8in /  1009hPa Calm     37% 0.000in /  0mm 0.00 W/m2
03:44 69.0 °F /  20.6 °C 43.0 °F /  6.1 °C 29.8in /  1009hPa Calm     38% 0.000in /  0mm 0.00 W/m2
03:49 69.0 °F /  20.6 °C 43.0 °F /  6.1 °C 29.8in /  1009hPa Calm     38% 0.000in /  0mm 0.00 W/m2
03:54 69.0 °F /  20.6 °C 42.0 °F /  5.6 °C 29.8in /  1009hPa Calm     37% 0.000in /  0mm 0.00 W/m2
03:59 69.0 °F /  20.6 °C 42.0 °F /  5.6 °C 29.8in /  1009hPa Calm     37% 0.000in /  0mm 0.00 W/m2
04:04 69.0 °F /  20.6 °C 42.0 °F /  5.6 °C 29.8in /  1009hPa Calm     38% 0.000in /  0mm 0.00 W/m2
04:09 69.0 °F /  20.6 °C 42.0 °F /  5.6 °C 29.8in /  1009hPa Calm     37% 0.000in /  0mm 0.00 W/m2
04:14 69.0 °F /  20.6 °C 42.0 °F /  5.6 °C 29.8in /  1009hPa Calm     37% 0.000in /  0mm 0.00 W/m2
04:19 69.0 °F /  20.6 °C 42.0 °F /  5.6 °C 29.8in /  1009hPa Calm     38% 0.000in /  0mm 0.00 W/m2
04:24 69.0 °F /  20.6 °C 43.0 °F /  6.1 °C 29.8in /  1009hPa Calm     39% 0.000in /  0mm 0.00 W/m2
04:29 69.0 °F /  20.6 °C 43.0 °F /  6.1 °C 29.8in /  1009hPa East 2mph /  3.2km/h   39% 0.000in /  0mm 0.00 W/m2
04:34 69.0 °F /  20.6 °C 44.0 °F /  6.7 °C 29.8in /  1009hPa Calm   2mph /  3.2km/h 42% 0.000in /  0mm 0.00 W/m2
04:39 68.0 °F /  20 °C 44.0 °F /  6.7 °C 29.8in /  1009hPa Calm     42% 0.000in /  0mm 0.00 W/m2
04:44 68.0 °F /  20 °C 44.0 °F /  6.7 °C 29.8in /  1009hPa Calm     41% 0.000in /  0mm 0.00 W/m2
04:49 68.0 °F /  20 °C 43.0 °F /  6.1 °C 29.8in /  1009hPa Calm     40% 0.000in /  0mm 0.00 W/m2
04:54 68.0 °F /  20 °C 44.0 °F /  6.7 °C 29.8in /  1009hPa Calm     41% 0.000in /  0mm 0.00 W/m2
04:59 68.0 °F /  20 °C 43.0 °F /  6.1 °C 29.8in /  1009hPa Calm     40% 0.000in /  0mm 0.00 W/m2
05:04 68.0 °F /  20 °C 43.0 °F /  6.1 °C 29.8in /  1009hPa Calm     40% 0.000in /  0mm 0.00 W/m2
05:09 68.0 °F /  20 °C 43.0 °F /  6.1 °C 29.8in /  1009hPa Calm     40% 0.000in /  0mm 0.00 W/m2
05:14 68.0 °F /  20 °C 43.0 °F /  6.1 °C 29.8in /  1009hPa Calm     40% 0.000in /  0mm 0.00 W/m2
05:19 68.0 °F /  20 °C 42.0 °F /  5.6 °C 29.8in /  1009hPa Calm     39% 0.000in /  0mm 0.00 W/m2
05:24 68.0 °F /  20 °C 42.0 °F /  5.6 °C 29.8in /  1009hPa Calm     40% 0.000in /  0mm 0.00 W/m2
05:29 68.0 °F /  20 °C 42.0 °F /  5.6 °C 29.8in /  1009hPa East 2mph /  3.2km/h   40% 0.000in /  0mm 0.00 W/m2
05:34 68.0 °F /  20 °C 41.0 °F /  5 °C 29.8in /  1009hPa East 2mph /  3.2km/h 2mph /  3.2km/h 38% 0.000in /  0mm 0.00 W/m2
05:39 68.0 °F /  20 °C 41.0 °F /  5 °C 29.8in /  1009hPa Calm   2mph /  3.2km/h 38% 0.000in /  0mm 0.00 W/m2
05:44 68.0 °F /  20 °C 41.0 °F /  5 °C 29.8in /  1009hPa East 4mph /  6.4km/h 1mph /  1.6km/h 38% 0.000in /  0mm 0.00 W/m2
05:49 68.0 °F /  20 °C 41.0 °F /  5 °C 29.8in /  1009hPa East 2mph /  3.2km/h 3mph /  4.8km/h 38% 0.000in /  0mm 0.00 W/m2
05:54 68.0 °F /  20 °C 40.0 °F /  4.4 °C 29.8in /  1009hPa Calm     37% 0.000in /  0mm 0.00 W/m2
05:59 68.0 °F /  20 °C 41.0 °F /  5 °C 29.8in /  1009hPa Calm     38% 0.000in /  0mm 0.00 W/m2
06:04 68.0 °F /  20 °C 41.0 °F /  5 °C 29.8in /  1009hPa Calm     37% 0.000in /  0mm 0.00 W/m2
06:09 68.0 °F /  20 °C 41.0 °F /  5 °C 29.8in /  1009hPa Calm     37% 0.000in /  0mm 0.00 W/m2
06:14 68.0 °F /  20 °C 41.0 °F /  5 °C 29.8in /  1009hPa Calm     37% 0.000in /  0mm 0.00 W/m2
06:18 68.0 °F /  20 °C 41.0 °F /  5 °C 29.8in /  1009hPa Calm     37% 0.000in /  0mm 0.00 W/m2
06:24 68.0 °F /  20 °C 40.0 °F /  4.4 °C 29.8in /  1009hPa Calm     36% 0.000in /  0mm 0.00 W/m2
06:29 68.0 °F /  20 °C 40.0 °F /  4.4 °C 29.8in /  1009hPa Calm     36% 0.000in /  0mm 0.00 W/m2
06:34 68.0 °F /  20 °C 40.0 °F /  4.4 °C 29.8in /  1009hPa Calm     36% 0.000in /  0mm 0.00 W/m2
06:39 69.0 °F /  20.6 °C 41.0 °F /  5 °C 29.8in /  1009hPa Calm     36% 0.000in /  0mm 0.00 W/m2
06:44 69.0 °F /  20.6 °C 41.0 °F /  5 °C 29.8in /  1009hPa Calm     36% 0.000in /  0mm 5.00 W/m2
06:49 69.0 °F /  20.6 °C 41.0 °F /  5 °C 29.8in /  1009hPa Calm     36% 0.000in /  0mm 7.00 W/m2
06:54 69.0 °F /  20.6 °C 41.0 °F /  5 °C 29.8in /  1009hPa Calm     36% 0.000in /  0mm 12.00 W/m2
06:59 69.0 °F /  20.6 °C 41.0 °F /  5 °C 29.8in /  1009hPa Calm     36% 0.000in /  0mm 16.00 W/m2
07:04 69.0 °F /  20.6 °C 41.0 °F /  5 °C 29.9in /  1012.4hPa East 2mph /  3.2km/h 1mph /  1.6km/h 36% 0.000in /  0mm 19.00 W/m2
07:09 69.0 °F /  20.6 °C 40.0 °F /  4.4 °C 29.9in /  1012.4hPa Calm   2mph /  3.2km/h 35% 0.000in /  0mm 23.00 W/m2
07:14 69.0 °F /  20.6 °C 40.0 °F /  4.4 °C 29.9in /  1012.4hPa Calm     35% 0.000in /  0mm 26.00 W/m2
07:19 69.0 °F /  20.6 °C 41.0 °F /  5 °C 29.9in /  1012.4hPa Calm     36% 0.000in /  0mm 28.00 W/m2
07:24 69.0 °F /  20.6 °C 41.0 °F /  5 °C 29.9in /  1012.4hPa Calm     36% 0.000in /  0mm 32.00 W/m2
07:29 69.0 °F /  20.6 °C 41.0 °F /  5 °C 29.9in /  1012.4hPa Calm     36% 0.000in /  0mm 37.00 W/m2
07:34 69.0 °F /  20.6 °C 41.0 °F /  5 °C 29.9in /  1012.4hPa Calm     36% 0.000in /  0mm 40.00 W/m2
07:39 69.0 °F /  20.6 °C 41.0 °F /  5 °C 29.9in /  1012.4hPa Calm     36% 0.000in /  0mm 44.00 W/m2
07:44 69.0 °F /  20.6 °C 42.0 °F /  5.6 °C 29.9in /  1012.4hPa Calm     37% 0.000in /  0mm 47.00 W/m2
07:49 69.0 °F /  20.6 °C 44.0 °F /  6.7 °C 29.9in /  1012.4hPa Calm     41% 0.000in /  0mm 49.00 W/m2
07:54 69.0 °F /  20.6 °C 44.0 °F /  6.7 °C 29.9in /  1012.4hPa Calm     40% 0.000in /  0mm 53.00 W/m2
07:59 69.0 °F /  20.6 °C 42.0 °F /  5.6 °C 29.9in /  1012.4hPa Calm     38% 0.000in /  0mm 58.00 W/m2
08:04 69.0 °F /  20.6 °C 43.0 °F /  6.1 °C 29.9in /  1012.4hPa Calm     38% 0.000in /  0mm 63.00 W/m2
08:09 69.0 °F /  20.6 °C 43.0 °F /  6.1 °C 29.9in /  1012.4hPa East 2mph /  3.2km/h   39% 0.000in /  0mm 67.00 W/m2
08:14 70.0 °F /  21.1 °C 44.0 °F /  6.7 °C 29.9in /  1012.4hPa ENE 6mph /  9.7km/h 2mph /  3.2km/h 40% 0.000in /  0mm 72.00 W/m2
08:19 70.0 °F /  21.1 °C 44.0 °F /  6.7 °C 29.9in /  1012.4hPa Calm   6mph /  9.7km/h 40% 0.000in /  0mm 77.00 W/m2
08:24 70.0 °F /  21.1 °C 44.0 °F /  6.7 °C 29.9in /  1012.4hPa Calm     40% 0.000in /  0mm 88.00 W/m2
08:29 70.0 °F /  21.1 °C 44.0 °F /  6.7 °C 29.9in /  1012.4hPa Calm     39% 0.000in /  0mm 151.00 W/m2
08:33 70.0 °F /  21.1 °C 44.0 °F /  6.7 °C 29.9in /  1012.4hPa Calm     39% 0.000in /  0mm 169.00 W/m2
08:39 71.0 °F /  21.7 °C 44.0 °F /  6.7 °C 29.9in /  1012.4hPa Calm     39% 0.000in /  0mm 186.00 W/m2
08:44 71.0 °F /  21.7 °C 45.0 °F /  7.2 °C 29.9in /  1012.4hPa Calm     39% 0.000in /  0mm 107.00 W/m2
08:49 72.0 °F /  22.2 °C 45.0 °F /  7.2 °C 29.9in /  1012.4hPa East 2mph /  3.2km/h 1mph /  1.6km/h 39% 0.000in /  0mm 139.00 W/m2
08:54 72.0 °F /  22.2 °C 45.0 °F /  7.2 °C 29.9in /  1012.4hPa ESE 4mph /  6.4km/h 3mph /  4.8km/h 38% 0.000in /  0mm 336.00 W/m2
08:59 73.0 °F /  22.8 °C 46.0 °F /  7.8 °C 29.9in /  1012.4hPa East 4mph /  6.4km/h 2mph /  3.2km/h 38% 0.000in /  0mm 357.00 W/m2
09:04 74.0 °F /  23.3 °C 45.0 °F /  7.2 °C 29.9in /  1012.4hPa East 4mph /  6.4km/h 3mph /  4.8km/h 37% 0.000in /  0mm 380.00 W/m2
09:09 75.0 °F /  23.9 °C 45.0 °F /  7.2 °C 29.9in /  1012.4hPa East 2mph /  3.2km/h 2mph /  3.2km/h 35% 0.000in /  0mm 403.00 W/m2
09:14 76.0 °F /  24.4 °C 44.0 °F /  6.7 °C 29.9in /  1012.4hPa East 2mph /  3.2km/h 2mph /  3.2km/h 33% 0.000in /  0mm 411.00 W/m2
09:19 77.0 °F /  25 °C 44.0 °F /  6.7 °C 29.9in /  1012.4hPa East 2mph /  3.2km/h 2mph /  3.2km/h 32% 0.000in /  0mm 424.00 W/m2
09:24 78.0 °F /  25.6 °C 43.0 °F /  6.1 °C 29.9in /  1012.4hPa Calm     30% 0.000in /  0mm 436.00 W/m2
09:29 79.0 °F /  26.1 °C 44.0 °F /  6.7 °C 29.9in /  1012.4hPa Calm     29% 0.000in /  0mm 462.00 W/m2
09:34 80.0 °F /  26.7 °C 44.0 °F /  6.7 °C 29.9in /  1012.4hPa SE 2mph /  3.2km/h 1mph /  1.6km/h 29% 0.000in /  0mm 454.00 W/m2
09:39 81.0 °F /  27.2 °C 42.0 °F /  5.6 °C 29.9in /  1012.4hPa SSE 2mph /  3.2km/h 2mph /  3.2km/h 26% 0.000in /  0mm 496.00 W/m2
09:44 82.0 °F /  27.8 °C 42.0 °F /  5.6 °C 29.9in /  1012.4hPa SSE 4mph /  6.4km/h 2mph /  3.2km/h 25% 0.000in /  0mm 466.00 W/m2
09:49 83.0 °F /  28.3 °C 42.0 °F /  5.6 °C 29.9in /  1012.4hPa SSE 2mph /  3.2km/h 3mph /  4.8km/h 24% 0.000in /  0mm 526.00 W/m2
09:54 84.0 °F /  28.9 °C 40.0 °F /  4.4 °C 29.9in /  1012.4hPa SSE 2mph /  3.2km/h 2mph /  3.2km/h 21% 0.000in /  0mm 555.00 W/m2
09:59 85.0 °F /  29.4 °C 42.0 °F /  5.6 °C 29.9in /  1012.4hPa SSE 2mph /  3.2km/h 2mph /  3.2km/h 22% 0.000in /  0mm 552.00 W/m2
10:04 86.0 °F /  30 °C 41.0 °F /  5 °C 29.9in /  1012.4hPa SSE 4mph /  6.4km/h 2mph /  3.2km/h 21% 0.000in /  0mm 592.00 W/m2
10:09 87.0 °F /  30.6 °C 41.0 °F /  5 °C 29.9in /  1012.4hPa SSE 2mph /  3.2km/h 3mph /  4.8km/h 20% 0.000in /  0mm 578.00 W/m2
10:14 88.0 °F /  31.1 °C 42.0 °F /  5.6 °C 29.9in /  1012.4hPa SSE 4mph /  6.4km/h 2mph /  3.2km/h 20% 0.000in /  0mm 587.00 W/m2
10:19 89.0 °F /  31.7 °C 41.0 °F /  5 °C 29.9in /  1012.4hPa SW 2mph /  3.2km/h 3mph /  4.8km/h 19% 0.000in /  0mm 599.00 W/m2
10:24 89.0 °F /  31.7 °C 40.0 °F /  4.4 °C 29.9in /  1012.4hPa WSW 6mph /  9.7km/h 3mph /  4.8km/h 18% 0.000in /  0mm 636.00 W/m2
10:29 90.0 °F /  32.2 °C 42.0 °F /  5.6 °C 29.9in /  1012.4hPa SSE 5mph /  8km/h 6mph /  9.7km/h 19% 0.000in /  0mm 619.00 W/m2
10:34 91.0 °F /  32.8 °C 41.0 °F /  5 °C 29.8in /  1009hPa SW 7mph /  11.3km/h 6mph /  9.7km/h 18% 0.000in /  0mm 619.00 W/m2
10:39 91.0 °F /  32.8 °C 42.0 °F /  5.6 °C 29.8in /  1009hPa West 4mph /  6.4km/h 7mph /  11.3km/h 18% 0.000in /  0mm 598.00 W/m2
10:44 91.0 °F /  32.8 °C 43.0 °F /  6.1 °C 29.8in /  1009hPa West 2mph /  3.2km/h 3mph /  4.8km/h 19% 0.000in /  0mm 640.00 W/m2
10:49 92.0 °F /  33.3 °C 43.0 °F /  6.1 °C 29.8in /  1009hPa WSW 4mph /  6.4km/h 2mph /  3.2km/h 19% 0.000in /  0mm 629.00 W/m2
10:54 92.0 °F /  33.3 °C 43.0 °F /  6.1 °C 29.8in /  1009hPa SW 2mph /  3.2km/h 3mph /  4.8km/h 18% 0.000in /  0mm 671.00 W/m2
10:59 92.0 °F /  33.3 °C 44.0 °F /  6.7 °C 29.8in /  1009hPa West 2mph /  3.2km/h 2mph /  3.2km/h 19% 0.000in /  0mm 631.00 W/m2
11:04 93.0 °F /  33.9 °C 43.0 °F /  6.1 °C 29.9in /  1012.4hPa West 6mph /  9.7km/h 4mph /  6.4km/h 18% 0.000in /  0mm 566.00 W/m2
11:09 93.0 °F /  33.9 °C 42.0 °F /  5.6 °C 29.8in /  1009hPa SW 7mph /  11.3km/h 7mph /  11.3km/h 17% 0.000in /  0mm 622.00 W/m2
11:14 93.0 °F /  33.9 °C 42.0 °F /  5.6 °C 29.8in /  1009hPa WSW 7mph /  11.3km/h 7mph /  11.3km/h 17% 0.000in /  0mm 643.00 W/m2
11:19 93.0 °F /  33.9 °C 42.0 °F /  5.6 °C 29.8in /  1009hPa SW 2mph /  3.2km/h 7mph /  11.3km/h 17% 0.000in /  0mm 663.00 W/m2
11:24 93.0 °F /  33.9 °C 42.0 °F /  5.6 °C 29.8in /  1009hPa SSW 11mph /  17.7km/h 8mph /  12.9km/h 17% 0.000in /  0mm 663.00 W/m2
11:29 94.0 °F /  34.4 °C 42.0 °F /  5.6 °C 29.8in /  1009hPa SW 4mph /  6.4km/h 10mph /  16.1km/h 17% 0.000in /  0mm 684.00 W/m2
11:34 94.0 °F /  34.4 °C 41.0 °F /  5 °C 29.8in /  1009hPa SSW 7mph /  11.3km/h 6mph /  9.7km/h 16% 0.000in /  0mm 731.00 W/m2
11:39 94.0 °F /  34.4 °C 43.0 °F /  6.1 °C 29.8in /  1009hPa West 4mph /  6.4km/h 7mph /  11.3km/h 17% 0.000in /  0mm 687.00 W/m2
11:44 95.0 °F /  35 °C 43.0 °F /  6.1 °C 29.8in /  1009hPa SW 9mph /  14.5km/h 5mph /  8km/h 17% 0.000in /  0mm 686.00 W/m2
11:49 95.0 °F /  35 °C 42.0 °F /  5.6 °C 29.8in /  1009hPa SW 4mph /  6.4km/h 9mph /  14.5km/h 16% 0.000in /  0mm 719.00 W/m2
11:54 95.0 °F /  35 °C 40.0 °F /  4.4 °C 29.8in /  1009hPa WSW 9mph /  14.5km/h 4mph /  6.4km/h 15% 0.000in /  0mm 694.00 W/m2
11:59 95.0 °F /  35 °C 40.0 °F /  4.4 °C 29.8in /  1009hPa WSW 9mph /  14.5km/h 9mph /  14.5km/h 15% 0.000in /  0mm 628.00 W/m2
12:04 96.0 °F /  35.6 °C 42.0 °F /  5.6 °C 29.8in /  1009hPa WNW 5mph /  8km/h 7mph /  11.3km/h 16% 0.000in /  0mm 612.00 W/m2
12:09 96.0 °F /  35.6 °C 42.0 °F /  5.6 °C 29.8in /  1009hPa WNW 6mph /  9.7km/h 6mph /  9.7km/h 16% 0.000in /  0mm 638.00 W/m2
12:14 96.0 °F /  35.6 °C 42.0 °F /  5.6 °C 29.8in /  1009hPa SSW 2mph /  3.2km/h 1mph /  1.6km/h 16% 0.000in /  0mm 612.00 W/m2
12:19 96.0 °F /  35.6 °C 43.0 °F /  6.1 °C 29.8in /  1009hPa SW 4mph /  6.4km/h 2mph /  3.2km/h 16% 0.000in /  0mm 638.00 W/m2
12:24 96.0 °F /  35.6 °C 43.0 °F /  6.1 °C 29.8in /  1009hPa SW 6mph /  9.7km/h 3mph /  4.8km/h 16% 0.000in /  0mm 635.00 W/m2
12:28 96.0 °F /  35.6 °C 41.0 °F /  5 °C 29.8in /  1009hPa SW 2mph /  3.2km/h 6mph /  9.7km/h 15% 0.000in /  0mm 656.00 W/m2
12:34 97.0 °F /  36.1 °C 43.0 °F /  6.1 °C 29.8in /  1009hPa WSW 7mph /  11.3km/h 2mph /  3.2km/h 16% 0.000in /  0mm 754.00 W/m2
12:39 97.0 °F /  36.1 °C 43.0 °F /  6.1 °C 29.8in /  1009hPa SSE 2mph /  3.2km/h 7mph /  11.3km/h 16% 0.000in /  0mm 740.00 W/m2
12:44 97.0 °F /  36.1 °C 42.0 °F /  5.6 °C 29.8in /  1009hPa SSE 2mph /  3.2km/h 2mph /  3.2km/h 15% 0.000in /  0mm 724.00 W/m2
12:49 98.0 °F /  36.7 °C 42.0 °F /  5.6 °C 29.8in /  1009hPa WSW 6mph /  9.7km/h 5mph /  8km/h 15% 0.000in /  0mm 737.00 W/m2
12:54 98.0 °F /  36.7 °C 42.0 °F /  5.6 °C 29.8in /  1009hPa SSW 9mph /  14.5km/h 11mph /  17.7km/h 15% 0.000in /  0mm 780.00 W/m2
12:59 98.0 °F /  36.7 °C 39.0 °F /  3.9 °C 29.8in /  1009hPa WSW 7mph /  11.3km/h 9mph /  14.5km/h 13% 0.000in /  0mm 696.00 W/m2
13:04 98.0 °F /  36.7 °C 41.0 °F /  5 °C 29.8in /  1009hPa SW 9mph /  14.5km/h 3mph /  4.8km/h 14% 0.000in /  0mm 742.00 W/m2
13:09 98.0 °F /  36.7 °C 43.0 °F /  6.1 °C 29.8in /  1009hPa WSW 5mph /  8km/h 9mph /  14.5km/h 15% 0.000in /  0mm 775.00 W/m2
13:14 98.0 °F /  36.7 °C 39.0 °F /  3.9 °C 29.8in /  1009hPa West 6mph /  9.7km/h 6mph /  9.7km/h 13% 0.000in /  0mm 780.00 W/m2
13:19 99.0 °F /  37.2 °C 39.0 °F /  3.9 °C 29.8in /  1009hPa SW 11mph /  17.7km/h 6mph /  9.7km/h 13% 0.000in /  0mm 780.00 W/m2
13:24 99.0 °F /  37.2 °C 39.0 °F /  3.9 °C 29.8in /  1009hPa SW 7mph /  11.3km/h 10mph /  16.1km/h 13% 0.000in /  0mm 779.00 W/m2
13:29 99.0 °F /  37.2 °C 40.0 °F /  4.4 °C 29.8in /  1009hPa West 6mph /  9.7km/h 7mph /  11.3km/h 13% 0.000in /  0mm 788.00 W/m2
13:34 99.0 °F /  37.2 °C 35.0 °F /  1.7 °C 29.8in /  1009hPa NW 7mph /  11.3km/h 6mph /  9.7km/h 11% 0.000in /  0mm 805.00 W/m2
13:39 100.0 °F /  37.8 °C 38.0 °F /  3.3 °C 29.8in /  1009hPa NW 7mph /  11.3km/h 7mph /  11.3km/h 12% 0.000in /  0mm 766.00 W/m2
13:44 100.0 °F /  37.8 °C 38.0 °F /  3.3 °C 29.8in /  1009hPa WNW 13mph /  20.9km/h 10mph /  16.1km/h 12% 0.000in /  0mm 800.00 W/m2
13:49 100.0 °F /  37.8 °C 36.0 °F /  2.2 °C 29.8in /  1009hPa SW 9mph /  14.5km/h 13mph /  20.9km/h 11% 0.000in /  0mm 791.00 W/m2
13:54 100.0 °F /  37.8 °C 38.0 °F /  3.3 °C 29.8in /  1009hPa WSW 4mph /  6.4km/h 9mph /  14.5km/h 12% 0.000in /  0mm 802.00 W/m2
13:59 101.0 °F /  38.3 °C 37.0 °F /  2.8 °C 29.8in /  1009hPa WSW 6mph /  9.7km/h 3mph /  4.8km/h 11% 0.000in /  0mm 786.00 W/m2
14:04 101.0 °F /  38.3 °C 39.0 °F /  3.9 °C 29.8in /  1009hPa WNW 2mph /  3.2km/h 6mph /  9.7km/h 12% 0.000in /  0mm 821.00 W/m2
14:09 101.0 °F /  38.3 °C 37.0 °F /  2.8 °C 29.8in /  1009hPa West 9mph /  14.5km/h 4mph /  6.4km/h 11% 0.000in /  0mm 784.00 W/m2
14:14 101.0 °F /  38.3 °C 35.0 °F /  1.7 °C 29.8in /  1009hPa WSW 13mph /  20.9km/h 13mph /  20.9km/h 10% 0.000in /  0mm 824.00 W/m2
14:19 101.0 °F /  38.3 °C 35.0 °F /  1.7 °C 29.8in /  1009hPa West 7mph /  11.3km/h 7mph /  11.3km/h 10% 0.000in /  0mm 803.00 W/m2
14:24 102.0 °F /  38.9 °C 35.0 °F /  1.7 °C 29.8in /  1009hPa NNW 11mph /  17.7km/h 7mph /  11.3km/h 10% 0.000in /  0mm 803.00 W/m2
14:29 102.0 °F /  38.9 °C 35.0 °F /  1.7 °C 29.8in /  1009hPa West 7mph /  11.3km/h 10mph /  16.1km/h 10% 0.000in /  0mm 763.00 W/m2
14:34 102.0 °F /  38.9 °C 35.0 °F /  1.7 °C 29.8in /  1009hPa WSW 11mph /  17.7km/h 10mph /  16.1km/h 10% 0.000in /  0mm 773.00 W/m2
14:39 102.0 °F /  38.9 °C 33.0 °F /  0.6 °C 29.8in /  1009hPa West 10mph /  16.1km/h 10mph /  16.1km/h 9% 0.000in /  0mm 768.00 W/m2
14:44 102.0 °F /  38.9 °C 33.0 °F /  0.6 °C 29.8in /  1009hPa NW 4mph /  6.4km/h 3mph /  4.8km/h 9% 0.000in /  0mm 758.00 W/m2
14:49 102.0 °F /  38.9 °C 33.0 °F /  0.6 °C 29.8in /  1009hPa SSW 4mph /  6.4km/h 3mph /  4.8km/h 9% 0.000in /  0mm 740.00 W/m2
14:54 102.0 °F /  38.9 °C 33.0 °F /  0.6 °C 29.8in /  1009hPa SSW 7mph /  11.3km/h 4mph /  6.4km/h 9% 0.000in /  0mm 744.00 W/m2
14:59 103.0 °F /  39.4 °C 33.0 °F /  0.6 °C 29.8in /  1009hPa SW 6mph /  9.7km/h 7mph /  11.3km/h 9% 0.000in /  0mm 722.00 W/m2
15:04 103.0 °F /  39.4 °C 33.0 °F /  0.6 °C 29.8in /  1009hPa SE 2mph /  3.2km/h 6mph /  9.7km/h 9% 0.000in /  0mm 698.00 W/m2
15:09 103.0 °F /  39.4 °C 36.0 °F /  2.2 °C 29.8in /  1009hPa NNW 9mph /  14.5km/h 8mph /  12.9km/h 10% 0.000in /  0mm 715.00 W/m2
15:14 103.0 °F /  39.4 °C 33.0 °F /  0.6 °C 29.8in /  1009hPa SW 9mph /  14.5km/h 9mph /  14.5km/h 9% 0.000in /  0mm 696.00 W/m2
15:19 103.0 °F /  39.4 °C 31.0 °F /  -0.6 °C 29.8in /  1009hPa West 11mph /  17.7km/h 9mph /  14.5km/h 8% 0.000in /  0mm 694.00 W/m2
15:24 103.0 °F /  39.4 °C 31.0 °F /  -0.6 °C 29.8in /  1009hPa SW 7mph /  11.3km/h 10mph /  16.1km/h 8% 0.000in /  0mm 686.00 W/m2
15:29 103.0 °F /  39.4 °C 36.0 °F /  2.2 °C 29.8in /  1009hPa West 6mph /  9.7km/h 7mph /  11.3km/h 10% 0.000in /  0mm 649.00 W/m2
15:34 103.0 °F /  39.4 °C 31.0 °F /  -0.6 °C 29.8in /  1009hPa WSW 16mph /  25.7km/h 14mph /  22.5km/h 8% 0.000in /  0mm 652.00 W/m2
15:39 103.0 °F /  39.4 °C 30.0 °F /  -1.1 °C 29.8in /  1009hPa SW 18mph /  29km/h 16mph /  25.7km/h 8% 0.000in /  0mm 629.00 W/m2
15:44 103.0 °F /  39.4 °C 30.0 °F /  -1.1 °C 29.8in /  1009hPa WSW 17mph /  27.4km/h 17mph /  27.4km/h 8% 0.000in /  0mm 617.00 W/m2
15:49 103.0 °F /  39.4 °C 30.0 °F /  -1.1 °C 29.8in /  1009hPa SW 16mph /  25.7km/h 12mph /  19.3km/h 8% 0.000in /  0mm 617.00 W/m2
15:54 103.0 °F /  39.4 °C 30.0 °F /  -1.1 °C 29.8in /  1009hPa SW 16mph /  25.7km/h 16mph /  25.7km/h 8% 0.000in /  0mm 589.00 W/m2
15:59 103.0 °F /  39.4 °C 30.0 °F /  -1.1 °C 29.8in /  1009hPa SW 9mph /  14.5km/h 10mph /  16.1km/h 8% 0.000in /  0mm 589.00 W/m2
16:04 103.0 °F /  39.4 °C 38.0 °F /  3.3 °C 29.8in /  1009hPa SW 14mph /  22.5km/h 9mph /  14.5km/h 11% 0.000in /  0mm 571.00 W/m2
16:09 103.0 °F /  39.4 °C 33.0 °F /  0.6 °C 29.8in /  1009hPa West 14mph /  22.5km/h 14mph /  22.5km/h 9% 0.000in /  0mm 550.00 W/m2
16:14 103.0 °F /  39.4 °C 36.0 °F /  2.2 °C 29.8in /  1009hPa West 6mph /  9.7km/h 7mph /  11.3km/h 10% 0.000in /  0mm 529.00 W/m2
16:19 103.0 °F /  39.4 °C 33.0 °F /  0.6 °C 29.8in /  1009hPa WSW 9mph /  14.5km/h 9mph /  14.5km/h 9% 0.000in /  0mm 520.00 W/m2
16:24 103.0 °F /  39.4 °C 30.0 °F /  -1.1 °C 29.8in /  1009hPa West 11mph /  17.7km/h 9mph /  14.5km/h 8% 0.000in /  0mm 497.00 W/m2
16:29 103.0 °F /  39.4 °C 33.0 °F /  0.6 °C 29.8in /  1009hPa WSW 9mph /  14.5km/h 10mph /  16.1km/h 9% 0.000in /  0mm 494.00 W/m2
16:34 103.0 °F /  39.4 °C 33.0 °F /  0.6 °C 29.8in /  1009hPa WSW 7mph /  11.3km/h 7mph /  11.3km/h 9% 0.000in /  0mm 480.00 W/m2
16:39 103.0 °F /  39.4 °C 36.0 °F /  2.2 °C 29.8in /  1009hPa SSW 6mph /  9.7km/h 7mph /  11.3km/h 10% 0.000in /  0mm 464.00 W/m2
16:44 103.0 °F /  39.4 °C 36.0 °F /  2.2 °C 29.8in /  1009hPa WSW 18mph /  29km/h 12mph /  19.3km/h 10% 0.000in /  0mm 457.00 W/m2
16:49 103.0 °F /  39.4 °C 36.0 °F /  2.2 °C 29.8in /  1009hPa SSW 10mph /  16.1km/h 17mph /  27.4km/h 10% 0.000in /  0mm 432.00 W/m2
16:54 103.0 °F /  39.4 °C 33.0 °F /  0.6 °C 29.8in /  1009hPa WSW 7mph /  11.3km/h 6mph /  9.7km/h 9% 0.000in /  0mm 415.00 W/m2
16:59 103.0 °F /  39.4 °C 33.0 °F /  0.6 °C 29.8in /  1009hPa West 7mph /  11.3km/h 7mph /  11.3km/h 9% 0.000in /  0mm 390.00 W/m2
17:04 102.0 °F /  38.9 °C 35.0 °F /  1.7 °C 29.8in /  1009hPa SSW 7mph /  11.3km/h 7mph /  11.3km/h 10% 0.000in /  0mm 378.00 W/m2
17:09 102.0 °F /  38.9 °C 35.0 °F /  1.7 °C 29.8in /  1009hPa SW 7mph /  11.3km/h 7mph /  11.3km/h 10% 0.000in /  0mm 359.00 W/m2
17:14 102.0 °F /  38.9 °C 35.0 °F /  1.7 °C 29.8in /  1009hPa SSW 11mph /  17.7km/h 9mph /  14.5km/h 10% 0.000in /  0mm 353.00 W/m2
17:19 102.0 °F /  38.9 °C 35.0 °F /  1.7 °C 29.8in /  1009hPa SW 9mph /  14.5km/h 10mph /  16.1km/h 10% 0.000in /  0mm 338.00 W/m2
17:24 101.0 °F /  38.3 °C 37.0 °F /  2.8 °C 29.8in /  1009hPa SW 9mph /  14.5km/h 9mph /  14.5km/h 11% 0.000in /  0mm 313.00 W/m2
17:29 101.0 °F /  38.3 °C 35.0 °F /  1.7 °C 29.8in /  1009hPa WSW 9mph /  14.5km/h 9mph /  14.5km/h 10% 0.000in /  0mm 274.00 W/m2
17:34 101.0 °F /  38.3 °C 34.0 °F /  1.1 °C 29.8in /  1009hPa West 9mph /  14.5km/h 7mph /  11.3km/h 10% 0.000in /  0mm 90.00 W/m2
17:39 100.0 °F /  37.8 °C 34.0 °F /  1.1 °C 29.8in /  1009hPa SSW 9mph /  14.5km/h 9mph /  14.5km/h 10% 0.000in /  0mm 95.00 W/m2
17:44 100.0 °F /  37.8 °C 36.0 °F /  2.2 °C 29.8in /  1009hPa WSW 7mph /  11.3km/h 9mph /  14.5km/h 11% 0.000in /  0mm 114.00 W/m2
17:49 99.0 °F /  37.2 °C 38.0 °F /  3.3 °C 29.8in /  1009hPa WSW 6mph /  9.7km/h 7mph /  11.3km/h 12% 0.000in /  0mm 74.00 W/m2
17:54 99.0 °F /  37.2 °C 39.0 °F /  3.9 °C 29.8in /  1009hPa SSW 4mph /  6.4km/h 3mph /  4.8km/h 13% 0.000in /  0mm 69.00 W/m2
El Dorado Weather
Compliments of Weather Underground - 2 mb